Horace Cenac — WDG7714 — position and weather

sailwx.info

Track history (hours):
 
Tides and Currents Weather Stations Pressure Air Temp Water Temp Dewpoint Dewpoint Depression Visibility Wind Speed Wind Dir Waves Ship Positions

Horace Cenac

Owner: Cenac Towing Company LLC, Houma, LA. More information available from US FCC via Universal Licensing System and Coast Guard Vessel Documentation Center.

Last reported at 2018-Jun-21 01:09 UTC. Time now 2018-Jun-24 14:17 UTC.
Position N 29°35' W 093°31'.

Length 29 m; draft 4 m.

Type: Towing. MMSI: 367570080.

Date/timePositionNaut miles runAvg speedWind from/ knotsBaromVisibWave heightAir tempDewpointWater temp
2018-Jun-21 01:09N 29°35' W 093°31'1 5.9
2018-Jun-21 00:55N 29°35' W 093°32'2 5.7
2018-Jun-21 00:30N 29°36' W 093°35'3 5.6
2018-Jun-21 00:00N 29°37' W 093°38'3 5.5
2018-Jun-20 23:30N 29°37' W 093°41'3 5.4
2018-Jun-20 23:01N 29°37' W 093°44'3 5.2
2018-Jun-20 22:30N 29°37' W 093°47'2 3.2
2018-Jun-20 22:00N 29°38' W 093°49'2 3.1
2018-Jun-20 21:31N 29°39' W 093°50'2 4.4
2018-Jun-20 21:01N 29°41' W 093°50'3 5.1
2018-Jun-20 20:31N 29°43' W 093°52'1 1.5
2018-Jun-20 20:00N 29°44' W 093°52'0 0.2
2018-Jun-20 19:30N 29°44' W 093°52'0 0.1
2018-Jun-20 18:59N 29°44' W 093°52'0 0.1
2018-Jun-20 18:31N 29°44' W 093°52'0 0.9
2018-Jun-20 18:00N 29°44' W 093°53'3 5.9
2018-Jun-20 17:30N 29°46' W 093°55'3 6.2
2018-Jun-20 17:00N 29°49' W 093°57'3 6.0
2018-Jun-20 16:30N 29°51' W 093°56'3 6.0
2018-Jun-20 16:01N 29°54' W 093°54'3 5.7
2018-Jun-20 15:30N 29°56' W 093°52'2 3.0
2018-Jun-20 14:58N 29°58' W 093°52'0 0.0
2018-Jun-20 14:28N 29°58' W 093°52'0 0.0
2018-Jun-20 13:59N 29°58' W 093°52'0 0.0
2018-Jun-20 13:29N 29°58' W 093°52'0 0.0
2018-Jun-20 12:58N 29°58' W 093°52'0 0.0
2018-Jun-20 12:29N 29°58' W 093°52'0 0.0
2018-Jun-20 11:58N 29°58' W 093°52'0 0.0
2018-Jun-20 11:28N 29°58' W 093°52'0 0.0
2018-Jun-20 10:58N 29°58' W 093°52'0 0.0
2018-Jun-20 10:26N 29°58' W 093°52'0 0.0
2018-Jun-20 09:58N 29°58' W 093°52'0 0.0
2018-Jun-20 09:29N 29°58' W 093°52'0 0.0
2018-Jun-20 08:58N 29°58' W 093°52'0 0.0
2018-Jun-20 08:28N 29°58' W 093°52'0 0.0
2018-Jun-20 07:58N 29°58' W 093°52'0 0.0
2018-Jun-20 07:28N 29°58' W 093°52'0 0.0
2018-Jun-20 06:58N 29°58' W 093°52'0 0.0
2018-Jun-20 06:29N 29°58' W 093°52'0 0.0
2018-Jun-20 05:59N 29°58' W 093°52'0 0.0
2018-Jun-20 05:28N 29°58' W 093°52'0 0.0
2018-Jun-20 04:58N 29°58' W 093°52'0 0.0
2018-Jun-20 04:28N 29°58' W 093°52'0 0.0
2018-Jun-20 03:58N 29°58' W 093°52'0 0.0
2018-Jun-20 03:28N 29°58' W 093°52'0 0.0
2018-Jun-20 03:00N 29°58' W 093°52'0 0.0
2018-Jun-20 02:30N 29°58' W 093°52'0 0.0
2018-Jun-20 02:00N 29°58' W 093°52'0 0.0
2018-Jun-20 01:30N 29°58' W 093°52'0 0.0
2018-Jun-20 01:00N 29°58' W 093°52'0 0.0
2018-Jun-20 00:30N 29°58' W 093°52'0 0.0
2018-Jun-20 00:00N 29°58' W 093°52'0 0.0
2018-Jun-19 23:30N 29°58' W 093°52'0 0.0
2018-Jun-19 22:59N 29°58' W 093°52'0 0.0
2018-Jun-19 22:30N 29°58' W 093°52'0 0.0
2018-Jun-19 22:00N 29°58' W 093°52'0 0.0
2018-Jun-19 21:30N 29°58' W 093°52'0 0.0
2018-Jun-19 21:00N 29°58' W 093°52'0 0.9
2018-Jun-19 20:30N 29°57' W 093°52'1 1.9
2018-Jun-19 20:00N 29°58' W 093°52'0 0.0
2018-Jun-19 19:30N 29°58' W 093°52'0 0.0
2018-Jun-19 18:59N 29°58' W 093°52'0 0.0
2018-Jun-19 18:30N 29°58' W 093°52'0 0.0
2018-Jun-19 18:00N 29°58' W 093°52'0 0.0
2018-Jun-19 17:30N 29°58' W 093°52'0 0.0
2018-Jun-19 17:00N 29°58' W 093°52'0 0.0
2018-Jun-19 16:30N 29°58' W 093°52'0 0.0
2018-Jun-19 16:00N 29°58' W 093°52'1 1.2
2018-Jun-19 15:30N 29°57' W 093°52'0 0.2
2018-Jun-19 14:58N 29°58' W 093°52'0 0.0
2018-Jun-19 14:28N 29°58' W 093°52'0 0.0
2018-Jun-19 13:58N 29°58' W 093°52'0 0.0
2018-Jun-19 13:28N 29°58' W 093°52'0 0.0
2018-Jun-19 12:58N 29°58' W 093°52'0 0.0
2018-Jun-19 12:28N 29°58' W 093°52'0 0.0
2018-Jun-19 11:58N 29°58' W 093°52'0 0.0
2018-Jun-19 11:28N 29°58' W 093°52'0 0.0
2018-Jun-19 10:55N 29°58' W 093°52'0 0.0
2018-Jun-19 10:28N 29°58' W 093°52'0 0.0
2018-Jun-19 09:58N 29°58' W 093°52'0 0.0
2018-Jun-19 09:28N 29°58' W 093°52'0 0.0
2018-Jun-19 08:58N 29°58' W 093°52'0 0.0
2018-Jun-19 08:28N 29°58' W 093°52'0 0.0
2018-Jun-19 07:58N 29°58' W 093°52'0 0.0
2018-Jun-19 07:28N 29°58' W 093°52'0 0.0
2018-Jun-19 06:58N 29°58' W 093°52'0 0.0
2018-Jun-19 06:28N 29°58' W 093°52'0 0.0
2018-Jun-19 05:58N 29°58' W 093°52'0 0.0
2018-Jun-19 05:28N 29°58' W 093°52'0 0.0
2018-Jun-19 04:58N 29°58' W 093°52'0 0.0
2018-Jun-19 04:28N 29°58' W 093°52'0 0.0
2018-Jun-19 03:58N 29°58' W 093°52'0 0.0
2018-Jun-19 03:28N 29°58' W 093°52'0 0.0
2018-Jun-19 02:58N 29°58' W 093°52'0 0.0
2018-Jun-19 02:25N 29°58' W 093°52'0 0.0
2018-Jun-19 01:58N 29°58' W 093°52'0 0.0
2018-Jun-19 01:28N 29°58' W 093°52'0 0.0
2018-Jun-19 00:58N 29°58' W 093°52'0 0.0
2018-Jun-19 00:28N 29°58' W 093°52'0 0.0
2018-Jun-18 23:58N 29°58' W 093°52'0 0.0
2018-Jun-18 23:28N 29°58' W 093°52'0 0.0
2018-Jun-18 22:58N 29°58' W 093°52'0 0.0
2018-Jun-18 22:28N 29°58' W 093°52'0 0.0
2018-Jun-18 21:58N 29°58' W 093°52'0 0.0
2018-Jun-18 21:28N 29°58' W 093°52'0 0.0
2018-Jun-18 20:58N 29°58' W 093°52'0 0.0
2018-Jun-18 20:28N 29°58' W 093°52'0 0.0
2018-Jun-18 19:58N 29°58' W 093°52'0 0.0
2018-Jun-18 19:25N 29°58' W 093°52'0 0.0
2018-Jun-18 18:58N 29°58' W 093°52'0 0.0
2018-Jun-18 18:28N 29°58' W 093°52'0 0.0
2018-Jun-18 17:58N 29°58' W 093°52'0 0.0
2018-Jun-18 17:28N 29°58' W 093°52'0 0.0
2018-Jun-18 16:58N 29°58' W 093°52'0 0.0
2018-Jun-18 16:28N 29°58' W 093°52'0 0.0
2018-Jun-18 15:58N 29°58' W 093°52'0 0.0
2018-Jun-18 15:19N 29°58' W 093°52'0 0.0
2018-Jun-18 14:58N 29°58' W 093°52'0 0.0
2018-Jun-18 14:28N 29°58' W 093°52'0 0.0
2018-Jun-18 13:58N 29°58' W 093°52'0 0.0
2018-Jun-18 13:28N 29°58' W 093°52'0 0.0
2018-Jun-18 12:58N 29°58' W 093°52'0 0.0
2018-Jun-18 12:28N 29°58' W 093°52'0 0.0
2018-Jun-18 11:58N 29°58' W 093°52'0 0.0
2018-Jun-18 11:25N 29°58' W 093°52'0 0.0
2018-Jun-18 10:58N 29°58' W 093°52'0 0.0
2018-Jun-18 10:28N 29°58' W 093°52'0 0.0
2018-Jun-18 09:55N 29°58' W 093°52'0 0.0
2018-Jun-18 09:28N 29°58' W 093°52'0 0.0
2018-Jun-18 08:58N 29°58' W 093°52'0 0.0
2018-Jun-18 08:28N 29°58' W 093°52'0 0.0
2018-Jun-18 07:58N 29°58' W 093°52'0 0.0
2018-Jun-18 07:28N 29°58' W 093°52'0 0.0
2018-Jun-18 06:58N 29°58' W 093°52'0 0.0
2018-Jun-18 06:28N 29°58' W 093°52'0 0.1
2018-Jun-18 05:58N 29°58' W 093°52'0 0.0
2018-Jun-18 05:28N 29°58' W 093°52'0 0.0
2018-Jun-18 04:58N 29°58' W 093°52'0 0.0
2018-Jun-18 04:28N 29°58' W 093°52'0 0.0
2018-Jun-18 03:58N 29°58' W 093°52'0 0.0
2018-Jun-18 03:28N 29°58' W 093°52'0 0.0
2018-Jun-18 02:58N 29°58' W 093°52'0 0.0
2018-Jun-18 02:28N 29°58' W 093°52'0 0.0
2018-Jun-18 01:55N 29°58' W 093°52'0 0.0
2018-Jun-18 01:28N 29°58' W 093°52'0 0.0
2018-Jun-18 00:58N 29°58' W 093°52'0 0.0
2018-Jun-18 00:28N 29°58' W 093°52'0 0.0
2018-Jun-17 23:58N 29°58' W 093°52'0 0.0
2018-Jun-17 23:28N 29°58' W 093°52'0 0.0
2018-Jun-17 22:58N 29°58' W 093°52'0 0.0
2018-Jun-17 22:28N 29°58' W 093°52'0 0.0
2018-Jun-17 21:58N 29°58' W 093°52'0 0.0
2018-Jun-17 21:25N 29°58' W 093°52'0 0.0
2018-Jun-17 20:58N 29°58' W 093°52'0 0.0
2018-Jun-17 20:28N 29°58' W 093°52'0 0.0
2018-Jun-17 19:58N 29°58' W 093°52'0 0.0
2018-Jun-17 19:28N 29°58' W 093°52'0 0.0
2018-Jun-17 18:58N 29°58' W 093°52'0 0.0
2018-Jun-17 18:28N 29°58' W 093°52'0 0.0
2018-Jun-17 17:55N 29°58' W 093°52'0 0.0
2018-Jun-17 17:28N 29°58' W 093°52'0 0.0
2018-Jun-17 16:58N 29°58' W 093°52'0 0.0
2018-Jun-17 16:28N 29°58' W 093°52'0 0.0
2018-Jun-17 15:58N 29°58' W 093°52'0 0.0
2018-Jun-17 15:25N 29°58' W 093°52'0 0.0
2018-Jun-17 14:58N 29°58' W 093°52'0 0.0
2018-Jun-17 14:28N 29°58' W 093°52'0 0.0
2018-Jun-17 13:58N 29°58' W 093°52'0 0.0
2018-Jun-17 13:28N 29°58' W 093°52'0 0.0
2018-Jun-17 12:58N 29°58' W 093°52'0 0.0
2018-Jun-17 12:28N 29°58' W 093°52'0 0.0
2018-Jun-17 11:58N 29°58' W 093°52'0 0.0
2018-Jun-17 11:25N 29°58' W 093°52'0 0.0
2018-Jun-17 10:58N 29°58' W 093°52'0 0.0
2018-Jun-17 10:28N 29°58' W 093°52'0 0.0
2018-Jun-17 09:58N 29°58' W 093°52'0 0.0
2018-Jun-17 09:25N 29°58' W 093°52'0 0.0
2018-Jun-17 08:58N 29°58' W 093°52'0 0.0
2018-Jun-17 08:28N 29°58' W 093°52'0 0.0
2018-Jun-17 07:58N 29°58' W 093°52'0 0.0
2018-Jun-17 07:28N 29°58' W 093°52'0 0.0
2018-Jun-17 06:58N 29°58' W 093°52'0 0.0
2018-Jun-17 06:25N 29°58' W 093°52'0 0.0
2018-Jun-17 05:58N 29°58' W 093°52'0 0.0
2018-Jun-17 05:28N 29°58' W 093°52'0 0.0
2018-Jun-17 04:58N 29°58' W 093°52'0 0.0
2018-Jun-17 04:28N 29°58' W 093°52'0 0.0
2018-Jun-17 03:58N 29°58' W 093°52'0 0.0
2018-Jun-17 03:28N 29°58' W 093°52'0 0.0
2018-Jun-17 02:58N 29°58' W 093°52'0 0.0
2018-Jun-17 02:28N 29°58' W 093°52'0 0.0
2018-Jun-17 01:58N 29°58' W 093°52'0 0.0
2018-Jun-17 01:28N 29°58' W 093°52'0 0.0
2018-Jun-17 00:58N 29°58' W 093°52'0 0.0
2018-Jun-17 00:28N 29°58' W 093°52'0 0.0
2018-Jun-16 23:58N 29°58' W 093°52'0 0.0
2018-Jun-16 23:28N 29°58' W 093°52'0 0.0
2018-Jun-16 22:58N 29°58' W 093°52'0 0.0
2018-Jun-16 22:28N 29°58' W 093°52'0 0.0
2018-Jun-16 21:58N 29°58' W 093°52'0 0.0
2018-Jun-16 21:28N 29°58' W 093°52'0 0.0
2018-Jun-16 20:58N 29°58' W 093°52'0 0.0
2018-Jun-16 20:28N 29°58' W 093°52'0 0.0
2018-Jun-16 19:58N 29°58' W 093°52'0 0.0
2018-Jun-16 19:28N 29°58' W 093°52'0 0.0
2018-Jun-16 18:58N 29°58' W 093°52'0 0.0
2018-Jun-16 18:28N 29°58' W 093°52'0 0.0
2018-Jun-16 17:58N 29°58' W 093°52'0 0.0
2018-Jun-16 17:28N 29°58' W 093°52'0 0.0
2018-Jun-16 16:58N 29°58' W 093°52'0 0.0
2018-Jun-16 16:28N 29°58' W 093°52'0 0.0
2018-Jun-16 15:58N 29°58' W 093°52'0 0.0
2018-Jun-16 15:28N 29°58' W 093°52'0 0.0
2018-Jun-16 14:58N 29°58' W 093°52'0 0.0
2018-Jun-16 14:28N 29°58' W 093°52'0 0.0
2018-Jun-16 13:58N 29°58' W 093°52'0 0.5
2018-Jun-16 13:28N 29°57' W 093°52'1 1.3
2018-Jun-16 13:00N 29°58' W 093°51'0 0.7
2018-Jun-16 12:28N 29°58' W 093°52'0 0.0
2018-Jun-16 11:56N 29°58' W 093°52'0 0.0
2018-Jun-16 11:28N 29°58' W 093°52'0 0.0
2018-Jun-16 10:58N 29°58' W 093°52'0 0.0
2018-Jun-16 10:29N 29°58' W 093°52'0 0.0
2018-Jun-16 09:58N 29°58' W 093°52'0 0.0
2018-Jun-16 09:28N 29°58' W 093°52'0 0.6
2018-Jun-16 09:00N 29°58' W 093°51'1 1.2
2018-Jun-16 08:30N 29°57' W 093°52'0 0.5
2018-Jun-16 08:00N 29°58' W 093°52'0 0.4
2018-Jun-16 07:30N 29°57' W 093°52'1 2.0
2018-Jun-16 07:00N 29°56' W 093°52'2 3.6
2018-Jun-16 06:30N 29°55' W 093°53'2 4.3
2018-Jun-16 06:00N 29°53' W 093°55'2 4.2
2018-Jun-16 05:30N 29°52' W 093°56'2 4.1
2018-Jun-16 05:00N 29°50' W 093°57'0 0.6
2018-Jun-16 04:30N 29°50' W 093°57'0 0.0
2018-Jun-16 03:58N 29°50' W 093°57'0 0.1
2018-Jun-16 03:28N 29°50' W 093°57'0 0.0
2018-Jun-16 02:58N 29°50' W 093°57'0 0.0
2018-Jun-16 02:28N 29°50' W 093°57'0 0.0
2018-Jun-16 01:58N 29°50' W 093°57'0 0.0
2018-Jun-16 01:28N 29°50' W 093°57'0 0.0
2018-Jun-16 00:58N 29°50' W 093°57'0 0.0
2018-Jun-16 00:28N 29°50' W 093°57'0 0.0
2018-Jun-15 23:58N 29°50' W 093°57'0 0.2
2018-Jun-15 23:30N 29°50' W 093°57'0 0.0
2018-Jun-15 23:00N 29°50' W 093°57'0 0.0
2018-Jun-15 22:30N 29°50' W 093°57'0 0.2
2018-Jun-15 22:00N 29°50' W 093°57'0 0.0
2018-Jun-15 21:30N 29°50' W 093°57'0 0.0
2018-Jun-15 21:00N 29°50' W 093°57'0 0.0
2018-Jun-15 20:30N 29°50' W 093°57'0 0.0
2018-Jun-15 20:00N 29°50' W 093°57'0 0.0
2018-Jun-15 19:30N 29°50' W 093°57'0 0.0
2018-Jun-15 19:00N 29°50' W 093°57'0 0.0
2018-Jun-15 18:30N 29°50' W 093°57'0 0.0
2018-Jun-15 17:59N 29°50' W 093°57'0 0.0
2018-Jun-15 17:30N 29°50' W 093°57'0 0.0
2018-Jun-15 17:00N 29°50' W 093°57'1 2.1
2018-Jun-15 16:31N 29°49' W 093°58'4 7.1
2018-Jun-15 16:00N 29°46' W 093°55'4 7.3
2018-Jun-15 15:31N 29°44' W 093°52'4 7.9
2018-Jun-15 15:00N 29°40' W 093°50'2 3.4
2018-Jun-15 14:30N 29°38' W 093°49'1 2.5
2018-Jun-15 14:00N 29°38' W 093°48'1 1.3
2018-Jun-15 13:30N 29°37' W 093°48'1 3.0
2018-Jun-15 13:00N 29°36' W 093°47'1 1.9
2018-Jun-15 12:31N 29°37' W 093°48'1 2.2
2018-Jun-15 12:00N 29°38' W 093°48'1 1.7
2018-Jun-15 11:30N 29°38' W 093°47'2 3.4
2018-Jun-15 11:01N 29°37' W 093°45'3 6.0
2018-Jun-15 10:31N 29°37' W 093°42'  
Track history (hours):
 
Tides and Currents Weather Stations Pressure Air Temp Water Temp Dewpoint Dewpoint Depression Visibility Wind Speed Wind Dir Waves Ship Positions

Horace Cenac

Owner: Cenac Towing Company LLC, Houma, LA. More information available from US FCC via Universal Licensing System and Coast Guard Vessel Documentation Center.

Last reported at 2018-Jun-21 01:09 UTC. Time now 2018-Jun-24 14:17 UTC.
Position N 29°35' W 093°31'.

Length 29 m; draft 4 m.

Type: Towing. MMSI: 367570080.

Date/timePositionNaut miles runAvg speedWind from/ knotsBaromVisibWave heightAir tempDewpointWater temp
2018-Jun-21 01:09N 29°35' W 093°31'1 5.9
2018-Jun-21 00:55N 29°35' W 093°32'2 5.7
2018-Jun-21 00:30N 29°36' W 093°35'3 5.6
2018-Jun-21 00:00N 29°37' W 093°38'3 5.5
2018-Jun-20 23:30N 29°37' W 093°41'3 5.4
2018-Jun-20 23:01N 29°37' W 093°44'3 5.2
2018-Jun-20 22:30N 29°37' W 093°47'2 3.2
2018-Jun-20 22:00N 29°38' W 093°49'2 3.1
2018-Jun-20 21:31N 29°39' W 093°50'2 4.4
2018-Jun-20 21:01N 29°41' W 093°50'3 5.1
2018-Jun-20 20:31N 29°43' W 093°52'1 1.5
2018-Jun-20 20:00N 29°44' W 093°52'0 0.2
2018-Jun-20 19:30N 29°44' W 093°52'0 0.1
2018-Jun-20 18:59N 29°44' W 093°52'0 0.1
2018-Jun-20 18:31N 29°44' W 093°52'0 0.9
2018-Jun-20 18:00N 29°44' W 093°53'3 5.9
2018-Jun-20 17:30N 29°46' W 093°55'3 6.2
2018-Jun-20 17:00N 29°49' W 093°57'3 6.0
2018-Jun-20 16:30N 29°51' W 093°56'3 6.0
2018-Jun-20 16:01N 29°54' W 093°54'3 5.7
2018-Jun-20 15:30N 29°56' W 093°52'2 3.0
2018-Jun-20 14:58N 29°58' W 093°52'0 0.0
2018-Jun-20 14:28N 29°58' W 093°52'0 0.0
2018-Jun-20 13:59N 29°58' W 093°52'0 0.0
2018-Jun-20 13:29N 29°58' W 093°52'0 0.0
2018-Jun-20 12:58N 29°58' W 093°52'0 0.0
2018-Jun-20 12:29N 29°58' W 093°52'0 0.0
2018-Jun-20 11:58N 29°58' W 093°52'0 0.0
2018-Jun-20 11:28N 29°58' W 093°52'0 0.0
2018-Jun-20 10:58N 29°58' W 093°52'0 0.0
2018-Jun-20 10:26N 29°58' W 093°52'0 0.0
2018-Jun-20 09:58N 29°58' W 093°52'0 0.0
2018-Jun-20 09:29N 29°58' W 093°52'0 0.0
2018-Jun-20 08:58N 29°58' W 093°52'0 0.0
2018-Jun-20 08:28N 29°58' W 093°52'0 0.0
2018-Jun-20 07:58N 29°58' W 093°52'0 0.0
2018-Jun-20 07:28N 29°58' W 093°52'0 0.0
2018-Jun-20 06:58N 29°58' W 093°52'0 0.0
2018-Jun-20 06:29N 29°58' W 093°52'0 0.0
2018-Jun-20 05:59N 29°58' W 093°52'0 0.0
2018-Jun-20 05:28N 29°58' W 093°52'0 0.0
2018-Jun-20 04:58N 29°58' W 093°52'0 0.0
2018-Jun-20 04:28N 29°58' W 093°52'0 0.0
2018-Jun-20 03:58N 29°58' W 093°52'0 0.0
2018-Jun-20 03:28N 29°58' W 093°52'0 0.0
2018-Jun-20 03:00N 29°58' W 093°52'0 0.0
2018-Jun-20 02:30N 29°58' W 093°52'0 0.0
2018-Jun-20 02:00N 29°58' W 093°52'0 0.0
2018-Jun-20 01:30N 29°58' W 093°52'0 0.0
2018-Jun-20 01:00N 29°58' W 093°52'0 0.0
2018-Jun-20 00:30N 29°58' W 093°52'0 0.0
2018-Jun-20 00:00N 29°58' W 093°52'0 0.0
2018-Jun-19 23:30N 29°58' W 093°52'0 0.0
2018-Jun-19 22:59N 29°58' W 093°52'0 0.0
2018-Jun-19 22:30N 29°58' W 093°52'0 0.0
2018-Jun-19 22:00N 29°58' W 093°52'0 0.0
2018-Jun-19 21:30N 29°58' W 093°52'0 0.0
2018-Jun-19 21:00N 29°58' W 093°52'0 0.9
2018-Jun-19 20:30N 29°57' W 093°52'1 1.9
2018-Jun-19 20:00N 29°58' W 093°52'0 0.0
2018-Jun-19 19:30N 29°58' W 093°52'0 0.0
2018-Jun-19 18:59N 29°58' W 093°52'0 0.0
2018-Jun-19 18:30N 29°58' W 093°52'0 0.0
2018-Jun-19 18:00N 29°58' W 093°52'0 0.0
2018-Jun-19 17:30N 29°58' W 093°52'0 0.0
2018-Jun-19 17:00N 29°58' W 093°52'0 0.0
2018-Jun-19 16:30N 29°58' W 093°52'0 0.0
2018-Jun-19 16:00N 29°58' W 093°52'1 1.2
2018-Jun-19 15:30N 29°57' W 093°52'0 0.2
2018-Jun-19 14:58N 29°58' W 093°52'0 0.0
2018-Jun-19 14:28N 29°58' W 093°52'0 0.0
2018-Jun-19 13:58N 29°58' W 093°52'0 0.0
2018-Jun-19 13:28N 29°58' W 093°52'0 0.0
2018-Jun-19 12:58N 29°58' W 093°52'0 0.0
2018-Jun-19 12:28N 29°58' W 093°52'0 0.0
2018-Jun-19 11:58N 29°58' W 093°52'0 0.0
2018-Jun-19 11:28N 29°58' W 093°52'0 0.0
2018-Jun-19 10:55N 29°58' W 093°52'0 0.0
2018-Jun-19 10:28N 29°58' W 093°52'0 0.0
2018-Jun-19 09:58N 29°58' W 093°52'0 0.0
2018-Jun-19 09:28N 29°58' W 093°52'0 0.0
2018-Jun-19 08:58N 29°58' W 093°52'0 0.0
2018-Jun-19 08:28N 29°58' W 093°52'0 0.0
2018-Jun-19 07:58N 29°58' W 093°52'0 0.0
2018-Jun-19 07:28N 29°58' W 093°52'0 0.0
2018-Jun-19 06:58N 29°58' W 093°52'0 0.0
2018-Jun-19 06:28N 29°58' W 093°52'0 0.0
2018-Jun-19 05:58N 29°58' W 093°52'0 0.0
2018-Jun-19 05:28N 29°58' W 093°52'0 0.0
2018-Jun-19 04:58N 29°58' W 093°52'0 0.0
2018-Jun-19 04:28N 29°58' W 093°52'0 0.0
2018-Jun-19 03:58N 29°58' W 093°52'0 0.0
2018-Jun-19 03:28N 29°58' W 093°52'0 0.0
2018-Jun-19 02:58N 29°58' W 093°52'0 0.0
2018-Jun-19 02:25N 29°58' W 093°52'0 0.0
2018-Jun-19 01:58N 29°58' W 093°52'0 0.0
2018-Jun-19 01:28N 29°58' W 093°52'0 0.0
2018-Jun-19 00:58N 29°58' W 093°52'0 0.0
2018-Jun-19 00:28N 29°58' W 093°52'0 0.0
2018-Jun-18 23:58N 29°58' W 093°52'0 0.0
2018-Jun-18 23:28N 29°58' W 093°52'0 0.0
2018-Jun-18 22:58N 29°58' W 093°52'0 0.0
2018-Jun-18 22:28N 29°58' W 093°52'0 0.0
2018-Jun-18 21:58N 29°58' W 093°52'0 0.0
2018-Jun-18 21:28N 29°58' W 093°52'0 0.0
2018-Jun-18 20:58N 29°58' W 093°52'0 0.0
2018-Jun-18 20:28N 29°58' W 093°52'0 0.0
2018-Jun-18 19:58N 29°58' W 093°52'0 0.0
2018-Jun-18 19:25N 29°58' W 093°52'0 0.0
2018-Jun-18 18:58N 29°58' W 093°52'0 0.0
2018-Jun-18 18:28N 29°58' W 093°52'0 0.0
2018-Jun-18 17:58N 29°58' W 093°52'0 0.0
2018-Jun-18 17:28N 29°58' W 093°52'0 0.0
2018-Jun-18 16:58N 29°58' W 093°52'0 0.0
2018-Jun-18 16:28N 29°58' W 093°52'0 0.0
2018-Jun-18 15:58N 29°58' W 093°52'0 0.0
2018-Jun-18 15:19N 29°58' W 093°52'0 0.0
2018-Jun-18 14:58N 29°58' W 093°52'0 0.0
2018-Jun-18 14:28N 29°58' W 093°52'0 0.0
2018-Jun-18 13:58N 29°58' W 093°52'0 0.0
2018-Jun-18 13:28N 29°58' W 093°52'0 0.0
2018-Jun-18 12:58N 29°58' W 093°52'0 0.0
2018-Jun-18 12:28N 29°58' W 093°52'0 0.0
2018-Jun-18 11:58N 29°58' W 093°52'0 0.0
2018-Jun-18 11:25N 29°58' W 093°52'0 0.0
2018-Jun-18 10:58N 29°58' W 093°52'0 0.0
2018-Jun-18 10:28N 29°58' W 093°52'0 0.0
2018-Jun-18 09:55N 29°58' W 093°52'0 0.0
2018-Jun-18 09:28N 29°58' W 093°52'0 0.0
2018-Jun-18 08:58N 29°58' W 093°52'0 0.0
2018-Jun-18 08:28N 29°58' W 093°52'0 0.0
2018-Jun-18 07:58N 29°58' W 093°52'0 0.0
2018-Jun-18 07:28N 29°58' W 093°52'0 0.0
2018-Jun-18 06:58N 29°58' W 093°52'0 0.0
2018-Jun-18 06:28N 29°58' W 093°52'0 0.1
2018-Jun-18 05:58N 29°58' W 093°52'0 0.0
2018-Jun-18 05:28N 29°58' W 093°52'0 0.0
2018-Jun-18 04:58N 29°58' W 093°52'0 0.0
2018-Jun-18 04:28N 29°58' W 093°52'0 0.0
2018-Jun-18 03:58N 29°58' W 093°52'0 0.0
2018-Jun-18 03:28N 29°58' W 093°52'0 0.0
2018-Jun-18 02:58N 29°58' W 093°52'0 0.0
2018-Jun-18 02:28N 29°58' W 093°52'0 0.0
2018-Jun-18 01:55N 29°58' W 093°52'0 0.0
2018-Jun-18 01:28N 29°58' W 093°52'0 0.0
2018-Jun-18 00:58N 29°58' W 093°52'0 0.0
2018-Jun-18 00:28N 29°58' W 093°52'0 0.0
2018-Jun-17 23:58N 29°58' W 093°52'0 0.0
2018-Jun-17 23:28N 29°58' W 093°52'0 0.0
2018-Jun-17 22:58N 29°58' W 093°52'0 0.0
2018-Jun-17 22:28N 29°58' W 093°52'0 0.0
2018-Jun-17 21:58N 29°58' W 093°52'0 0.0
2018-Jun-17 21:25N 29°58' W 093°52'0 0.0
2018-Jun-17 20:58N 29°58' W 093°52'0 0.0
2018-Jun-17 20:28N 29°58' W 093°52'0 0.0
2018-Jun-17 19:58N 29°58' W 093°52'0 0.0
2018-Jun-17 19:28N 29°58' W 093°52'0 0.0
2018-Jun-17 18:58N 29°58' W 093°52'0 0.0
2018-Jun-17 18:28N 29°58' W 093°52'0 0.0
2018-Jun-17 17:55N 29°58' W 093°52'0 0.0
2018-Jun-17 17:28N 29°58' W 093°52'0 0.0
2018-Jun-17 16:58N 29°58' W 093°52'0 0.0
2018-Jun-17 16:28N 29°58' W 093°52'0 0.0
2018-Jun-17 15:58N 29°58' W 093°52'0 0.0
2018-Jun-17 15:25N 29°58' W 093°52'0 0.0
2018-Jun-17 14:58N 29°58' W 093°52'0 0.0
2018-Jun-17 14:28N 29°58' W 093°52'0 0.0
2018-Jun-17 13:58N 29°58' W 093°52'0 0.0
2018-Jun-17 13:28N 29°58' W 093°52'0 0.0
2018-Jun-17 12:58N 29°58' W 093°52'0 0.0
2018-Jun-17 12:28N 29°58' W 093°52'0 0.0
2018-Jun-17 11:58N 29°58' W 093°52'0 0.0
2018-Jun-17 11:25N 29°58' W 093°52'0 0.0
2018-Jun-17 10:58N 29°58' W 093°52'0 0.0
2018-Jun-17 10:28N 29°58' W 093°52'0 0.0
2018-Jun-17 09:58N 29°58' W 093°52'0 0.0
2018-Jun-17 09:25N 29°58' W 093°52'0 0.0
2018-Jun-17 08:58N 29°58' W 093°52'0 0.0
2018-Jun-17 08:28N 29°58' W 093°52'0 0.0
2018-Jun-17 07:58N 29°58' W 093°52'0 0.0
2018-Jun-17 07:28N 29°58' W 093°52'0 0.0
2018-Jun-17 06:58N 29°58' W 093°52'0 0.0
2018-Jun-17 06:25N 29°58' W 093°52'0 0.0
2018-Jun-17 05:58N 29°58' W 093°52'0 0.0
2018-Jun-17 05:28N 29°58' W 093°52'0 0.0
2018-Jun-17 04:58N 29°58' W 093°52'0 0.0
2018-Jun-17 04:28N 29°58' W 093°52'0 0.0
2018-Jun-17 03:58N 29°58' W 093°52'0 0.0
2018-Jun-17 03:28N 29°58' W 093°52'0 0.0
2018-Jun-17 02:58N 29°58' W 093°52'0 0.0
2018-Jun-17 02:28N 29°58' W 093°52'0 0.0
2018-Jun-17 01:58N 29°58' W 093°52'0 0.0
2018-Jun-17 01:28N 29°58' W 093°52'0 0.0
2018-Jun-17 00:58N 29°58' W 093°52'0 0.0
2018-Jun-17 00:28N 29°58' W 093°52'0 0.0
2018-Jun-16 23:58N 29°58' W 093°52'0 0.0
2018-Jun-16 23:28N 29°58' W 093°52'0 0.0
2018-Jun-16 22:58N 29°58' W 093°52'0 0.0
2018-Jun-16 22:28N 29°58' W 093°52'0 0.0
2018-Jun-16 21:58N 29°58' W 093°52'0 0.0
2018-Jun-16 21:28N 29°58' W 093°52'0 0.0
2018-Jun-16 20:58N 29°58' W 093°52'0 0.0
2018-Jun-16 20:28N 29°58' W 093°52'0 0.0
2018-Jun-16 19:58N 29°58' W 093°52'0 0.0
2018-Jun-16 19:28N 29°58' W 093°52'0 0.0
2018-Jun-16 18:58N 29°58' W 093°52'0 0.0
2018-Jun-16 18:28N 29°58' W 093°52'0 0.0
2018-Jun-16 17:58N 29°58' W 093°52'0 0.0
2018-Jun-16 17:28N 29°58' W 093°52'0 0.0
2018-Jun-16 16:58N 29°58' W 093°52'0 0.0
2018-Jun-16 16:28N 29°58' W 093°52'0 0.0
2018-Jun-16 15:58N 29°58' W 093°52'0 0.0
2018-Jun-16 15:28N 29°58' W 093°52'0 0.0
2018-Jun-16 14:58N 29°58' W 093°52'0 0.0
2018-Jun-16 14:28N 29°58' W 093°52'0 0.0
2018-Jun-16 13:58N 29°58' W 093°52'0 0.5
2018-Jun-16 13:28N 29°57' W 093°52'1 1.3
2018-Jun-16 13:00N 29°58' W 093°51'0 0.7
2018-Jun-16 12:28N 29°58' W 093°52'0 0.0
2018-Jun-16 11:56N 29°58' W 093°52'0 0.0
2018-Jun-16 11:28N 29°58' W 093°52'0 0.0
2018-Jun-16 10:58N 29°58' W 093°52'0 0.0
2018-Jun-16 10:29N 29°58' W 093°52'0 0.0
2018-Jun-16 09:58N 29°58' W 093°52'0 0.0
2018-Jun-16 09:28N 29°58' W 093°52'0 0.6
2018-Jun-16 09:00N 29°58' W 093°51'1 1.2
2018-Jun-16 08:30N 29°57' W 093°52'0 0.5
2018-Jun-16 08:00N 29°58' W 093°52'0 0.4
2018-Jun-16 07:30N 29°57' W 093°52'1 2.0
2018-Jun-16 07:00N 29°56' W 093°52'2 3.6
2018-Jun-16 06:30N 29°55' W 093°53'2 4.3
2018-Jun-16 06:00N 29°53' W 093°55'2 4.2
2018-Jun-16 05:30N 29°52' W 093°56'2 4.1
2018-Jun-16 05:00N 29°50' W 093°57'0 0.6
2018-Jun-16 04:30N 29°50' W 093°57'0 0.0
2018-Jun-16 03:58N 29°50' W 093°57'0 0.1
2018-Jun-16 03:28N 29°50' W 093°57'0 0.0
2018-Jun-16 02:58N 29°50' W 093°57'0 0.0
2018-Jun-16 02:28N 29°50' W 093°57'0 0.0
2018-Jun-16 01:58N 29°50' W 093°57'0 0.0
2018-Jun-16 01:28N 29°50' W 093°57'0 0.0
2018-Jun-16 00:58N 29°50' W 093°57'0 0.0
2018-Jun-16 00:28N 29°50' W 093°57'0 0.0
2018-Jun-15 23:58N 29°50' W 093°57'0 0.2
2018-Jun-15 23:30N 29°50' W 093°57'0 0.0
2018-Jun-15 23:00N 29°50' W 093°57'0 0.0
2018-Jun-15 22:30N 29°50' W 093°57'0 0.2
2018-Jun-15 22:00N 29°50' W 093°57'0 0.0
2018-Jun-15 21:30N 29°50' W 093°57'0 0.0
2018-Jun-15 21:00N 29°50' W 093°57'0 0.0
2018-Jun-15 20:30N 29°50' W 093°57'0 0.0
2018-Jun-15 20:00N 29°50' W 093°57'0 0.0
2018-Jun-15 19:30N 29°50' W 093°57'0 0.0
2018-Jun-15 19:00N 29°50' W 093°57'0 0.0
2018-Jun-15 18:30N 29°50' W 093°57'0 0.0
2018-Jun-15 17:59N 29°50' W 093°57'0 0.0
2018-Jun-15 17:30N 29°50' W 093°57'0 0.0
2018-Jun-15 17:00N 29°50' W 093°57'1 2.1
2018-Jun-15 16:31N 29°49' W 093°58'4 7.1
2018-Jun-15 16:00N 29°46' W 093°55'4 7.3
2018-Jun-15 15:31N 29°44' W 093°52'4 7.9
2018-Jun-15 15:00N 29°40' W 093°50'2 3.4
2018-Jun-15 14:30N 29°38' W 093°49'1 2.5
2018-Jun-15 14:00N 29°38' W 093°48'1 1.3
2018-Jun-15 13:30N 29°37' W 093°48'1 3.0
2018-Jun-15 13:00N 29°36' W 093°47'1 1.9
2018-Jun-15 12:31N 29°37' W 093°48'1 2.2
2018-Jun-15 12:00N 29°38' W 093°48'1 1.7
2018-Jun-15 11:30N 29°38' W 093°47'2 3.4
2018-Jun-15 11:01N 29°37' W 093°45'3 6.0
2018-Jun-15 10:31N 29°37' W 093°42'  

Dump ship's entire track history